createdAt,value
2018-12-15T00:03:21.234Z,33.50
2018-12-15T00:05:49.745Z,33.40
2018-12-15T00:08:17.981Z,33.80
2018-12-15T00:13:46.238Z,34.00
2018-12-15T00:16:20.295Z,34.20
2018-12-15T00:18:48.533Z,33.60
2018-12-15T00:24:17.584Z,33.60
2018-12-15T00:26:51.718Z,33.50
2018-12-15T00:29:20.384Z,33.30
2018-12-15T00:34:48.695Z,33.80
2018-12-15T00:43:16.774Z,34.10
2018-12-15T00:45:45.124Z,34.20
2018-12-15T00:48:13.804Z,33.60
2018-12-15T00:53:44.235Z,32.90
2018-12-15T00:56:12.734Z,33.50
2018-12-15T00:58:40.971Z,33.80
2018-12-15T01:07:01.986Z,33.70
2018-12-15T01:09:30.223Z,33.70
2018-12-15T01:14:59.134Z,34.00
2018-12-15T01:17:27.418Z,33.80
2018-12-15T01:19:55.765Z,34.40
2018-12-15T01:25:24.569Z,34.00
2018-12-15T01:33:51.789Z,34.00
2018-12-15T01:36:20.324Z,33.50
2018-12-15T01:38:52.199Z,33.50
2018-12-15T01:44:13.496Z,34.00
2018-12-15T01:46:47.829Z,34.20
2018-12-15T01:49:20.404Z,34.40
2018-12-15T01:54:44.616Z,34.20
2018-12-15T01:57:12.930Z,34.30
2018-12-15T01:59:43.066Z,33.60
2018-12-15T02:05:05.339Z,33.60
2018-12-15T02:07:33.587Z,33.20
2018-12-15T02:10:01.920Z,33.30
2018-12-15T02:15:27.041Z,33.80
2018-12-15T02:17:55.375Z,33.40
2018-12-15T02:20:23.638Z,33.30
2018-12-15T02:25:53.419Z,33.00
2018-12-15T02:28:22.204Z,33.40
2018-12-15T02:33:52.591Z,33.30
2018-12-15T02:36:21.873Z,33.10
2018-12-15T02:38:51.784Z,33.90
2018-12-15T02:41:25.780Z,34.20
2018-12-15T02:43:57.934Z,33.60
2018-12-15T02:46:28.384Z,33.20
2018-12-15T02:55:09.989Z,33.20
2018-12-15T02:57:39.733Z,33.20
2018-12-15T03:00:12.375Z,33.40
2018-12-15T03:02:43.255Z,33.50
2018-12-15T03:05:17.307Z,33.60
2018-12-15T03:07:58.073Z,33.10
2018-12-15T03:10:32.514Z,33.30
2018-12-15T03:13:04.325Z,32.60
2018-12-15T03:15:38.197Z,33.10
2018-12-15T03:18:09.931Z,33.60
2018-12-15T03:20:49.992Z,32.60
2018-12-15T03:23:19.981Z,32.70
2018-12-15T03:25:52.529Z,33.10
2018-12-15T03:28:24.749Z,33.70
2018-12-15T03:30:59.323Z,32.90
2018-12-15T03:33:31.292Z,32.30
2018-12-15T03:36:17.885Z,32.60
2018-12-15T03:38:52.585Z,32.60
2018-12-15T03:41:33.248Z,33.60
2018-12-15T03:44:14.264Z,33.30
2018-12-15T03:46:44.318Z,33.20
2018-12-15T03:49:14.828Z,32.60
2018-12-15T03:51:46.933Z,32.70
2018-12-15T03:54:19.306Z,32.50
2018-12-15T03:56:53.975Z,32.30
2018-12-15T03:59:26.599Z,32.80
2018-12-15T04:02:13.301Z,32.40
2018-12-15T04:04:47.684Z,32.40
2018-12-15T04:07:20.407Z,33.20
2018-12-15T04:10:07.212Z,33.10
2018-12-15T04:15:36.200Z,33.50
2018-12-15T04:18:14.038Z,32.90
2018-12-15T04:20:50.351Z,33.20
2018-12-15T04:23:22.323Z,33.50
2018-12-15T04:25:53.879Z,32.70
2018-12-15T04:28:27.964Z,33.20
2018-12-15T04:31:01.790Z,33.70
2018-12-15T04:33:33.753Z,33.20
2018-12-15T04:36:13.263Z,32.90
2018-12-15T04:38:47.442Z,32.30
2018-12-15T04:41:28.229Z,32.60
2018-12-15T04:44:02.878Z,33.30
2018-12-15T04:46:37.150Z,33.10
2018-12-15T04:49:12.391Z,32.70
2018-12-15T04:51:44.518Z,32.70
2018-12-15T04:54:19.270Z,32.90
2018-12-15T04:56:51.640Z,32.80
2018-12-15T04:59:28.072Z,33.00
2018-12-15T05:02:02.664Z,33.40
2018-12-15T05:04:36.849Z,32.80
2018-12-15T05:07:08.415Z,33.20
2018-12-15T05:09:43.092Z,33.50
2018-12-15T05:12:13.072Z,32.50
2018-12-15T05:14:48.036Z,32.90
2018-12-15T05:17:28.555Z,33.90
2018-12-15T05:20:02.448Z,34.00
2018-12-15T05:22:34.119Z,33.80
2018-12-15T05:25:06.655Z,33.20
2018-12-15T05:27:38.996Z,33.30
2018-12-15T05:30:13.184Z,33.20
2018-12-15T05:32:47.289Z,33.00
2018-12-15T05:35:19.273Z,32.90
2018-12-15T05:37:53.051Z,33.10
2018-12-15T05:40:24.893Z,33.70
2018-12-15T05:42:56.439Z,33.30
2018-12-15T05:45:26.587Z,33.90
2018-12-15T05:47:56.750Z,34.00
2018-12-15T05:50:32.563Z,33.70
2018-12-15T05:53:07.963Z,33.50
2018-12-15T05:58:37.253Z,33.00
2018-12-15T06:01:05.903Z,33.00
2018-12-15T06:03:34.163Z,33.20
2018-12-15T06:08:55.522Z,32.30
2018-12-15T06:11:23.755Z,33.10
2018-12-15T06:13:52.115Z,33.00
2018-12-15T06:19:13.433Z,33.10
2018-12-15T06:21:41.690Z,32.90
2018-12-15T06:24:10.002Z,32.80
2018-12-15T06:29:38.324Z,33.60
2018-12-15T06:32:06.652Z,33.10
2018-12-15T06:34:35.058Z,33.30
2018-12-15T06:40:03.818Z,33.30
2018-12-15T06:42:32.086Z,33.20
2018-12-15T06:45:00.320Z,33.50
2018-12-15T06:50:22.592Z,32.40
2018-12-15T06:52:51.607Z,33.00
2018-12-15T06:55:20.056Z,32.60
2018-12-15T07:00:49.204Z,32.50
2018-12-15T07:03:17.588Z,32.90
2018-12-15T07:08:39.066Z,32.80
2018-12-15T07:11:07.292Z,32.90
2018-12-15T07:13:35.637Z,33.40
2018-12-15T07:18:56.876Z,33.30
2018-12-15T07:21:25.154Z,33.00
2018-12-15T07:23:53.350Z,32.80
2018-12-15T07:29:22.316Z,32.90
2018-12-15T07:31:50.576Z,32.60
2018-12-15T07:34:18.873Z,32.40
2018-12-15T07:39:39.762Z,31.90
2018-12-15T07:42:08.156Z,31.60
2018-12-15T07:44:37.017Z,31.70
2018-12-15T07:50:06.010Z,31.70
2018-12-15T07:52:34.388Z,31.80
2018-12-15T07:55:02.942Z,30.30
2018-12-15T08:00:31.354Z,30.20
2018-12-15T08:02:59.696Z,30.90
2018-12-15T08:05:28.614Z,30.40
2018-12-15T08:11:03.204Z,30.50
2018-12-15T08:13:33.150Z,30.20
2018-12-15T08:18:58.011Z,30.70
2018-12-15T08:21:24.772Z,30.50
2018-12-15T08:23:53.032Z,30.30
2018-12-15T08:29:22.295Z,31.00
2018-12-15T08:31:50.671Z,30.80
2018-12-15T08:34:18.943Z,30.80
2018-12-15T08:39:47.481Z,29.50
2018-12-15T08:42:15.699Z,29.90
2018-12-15T08:44:44.048Z,30.00
2018-12-15T08:50:06.217Z,29.90
2018-12-15T08:52:34.520Z,30.00
2018-12-15T08:55:02.767Z,30.10
2018-12-15T09:00:24.302Z,30.70
2018-12-15T09:02:52.942Z,30.50
2018-12-15T09:05:21.450Z,30.00
2018-12-15T09:10:42.990Z,30.50
2018-12-15T09:13:11.198Z,30.50
2018-12-15T09:15:39.478Z,30.80
2018-12-15T09:24:01.428Z,29.90
2018-12-15T09:26:29.791Z,30.20
2018-12-15T09:28:58.340Z,30.30
2018-12-15T09:34:19.477Z,29.30
2018-12-15T09:36:47.710Z,29.40
2018-12-15T09:39:16.083Z,29.50
2018-12-15T09:44:37.986Z,28.90
2018-12-15T09:47:06.315Z,29.20
2018-12-15T09:49:35.852Z,29.50
2018-12-15T09:54:56.832Z,29.60
2018-12-15T09:57:25.342Z,29.70
2018-12-15T09:59:53.564Z,29.90
2018-12-15T10:05:15.328Z,30.40
2018-12-15T10:07:43.966Z,30.20
2018-12-15T10:10:12.312Z,29.90
2018-12-15T10:15:33.344Z,29.50
2018-12-15T10:18:02.701Z,29.50
2018-12-15T10:23:07.721Z,29.10
2018-12-15T10:25:41.415Z,29.50
2018-12-15T10:28:11.423Z,29.50
2018-12-15T10:55:09.770Z,29.20
2018-12-15T10:57:39.594Z,28.90
2018-12-15T11:00:22.647Z,29.10
2018-12-15T11:02:54.527Z,29.20
2018-12-15T11:05:29.143Z,29.20
2018-12-15T11:07:59.157Z,29.10
2018-12-15T11:10:34.052Z,28.90
2018-12-15T11:13:06.188Z,28.60
2018-12-15T11:18:08.699Z,28.80
2018-12-15T11:20:38.098Z,28.70
2018-12-15T11:23:09.544Z,28.60
2018-12-15T11:25:43.668Z,28.10
2018-12-15T11:28:15.868Z,28.30
2018-12-15T11:30:48.426Z,28.40
2018-12-15T11:33:24.972Z,28.20
2018-12-15T11:35:59.284Z,28.00
2018-12-15T11:38:33.466Z,27.70
2018-12-15T11:41:05.281Z,27.90
2018-12-15T11:43:37.696Z,27.70
2018-12-15T11:46:09.913Z,28.10
2018-12-15T11:48:39.441Z,28.80
2018-12-15T11:51:13.671Z,28.30
2018-12-15T11:53:45.898Z,28.00
2018-12-15T11:56:18.974Z,27.80
2018-12-15T11:58:48.499Z,27.80
2018-12-15T12:01:23.424Z,28.00
2018-12-15T12:03:55.392Z,28.50
2018-12-15T12:06:26.764Z,28.30
2018-12-15T12:09:01.571Z,27.90
2018-12-15T12:11:33.246Z,28.20
2018-12-15T12:14:08.244Z,28.30
2018-12-15T12:19:19.297Z,28.20
2018-12-15T12:21:52.181Z,28.20
2018-12-15T12:24:30.484Z,28.10
2018-12-15T12:27:00.399Z,27.60
2018-12-15T12:29:31.572Z,27.80
2018-12-15T12:32:05.882Z,27.40
2018-12-15T12:34:37.430Z,27.70
2018-12-15T12:37:18.258Z,27.80
2018-12-15T12:39:53.219Z,27.50
2018-12-15T12:42:22.883Z,27.90
2018-12-15T12:44:54.740Z,28.10
2018-12-15T12:47:35.837Z,28.50
2018-12-15T12:50:13.737Z,28.80
2018-12-15T12:52:47.856Z,28.30
2018-12-15T12:55:17.660Z,28.50
2018-12-15T12:57:56.600Z,28.60
2018-12-15T13:00:28.406Z,28.70
2018-12-15T13:03:02.076Z,28.90
2018-12-15T13:05:36.679Z,28.80
2018-12-15T13:08:08.256Z,29.10
2018-12-15T13:10:42.244Z,29.30
2018-12-15T13:13:14.233Z,29.00
2018-12-15T13:15:45.632Z,29.10
2018-12-15T13:18:23.462Z,29.20
2018-12-15T13:20:59.041Z,29.40
2018-12-15T13:23:30.514Z,29.20
2018-12-15T13:26:08.335Z,28.80
2018-12-15T13:28:43.810Z,28.80
2018-12-15T13:31:15.634Z,28.80
2018-12-15T13:33:45.480Z,28.80
2018-12-15T13:36:19.912Z,28.60
2018-12-15T13:38:49.828Z,29.20
2018-12-15T13:41:23.560Z,28.90
2018-12-15T13:44:46.005Z,28.60
2018-12-15T13:47:17.900Z,28.70
2018-12-15T13:49:49.686Z,29.50
2018-12-15T13:52:23.605Z,28.90
2018-12-15T13:54:55.500Z,29.00
2018-12-15T13:57:26.917Z,29.30
2018-12-15T14:00:00.669Z,29.00
2018-12-15T14:02:32.791Z,28.90
2018-12-15T14:05:06.501Z,28.70
2018-12-15T14:07:38.457Z,28.10
2018-12-15T14:10:10.408Z,28.70
2018-12-15T14:12:45.126Z,28.70
2018-12-15T14:15:19.783Z,28.20
2018-12-15T14:17:52.588Z,28.60
2018-12-15T14:22:56.077Z,28.40
2018-12-15T14:25:28.408Z,28.90
2018-12-15T14:28:02.208Z,29.00
2018-12-15T14:30:34.486Z,29.10
2018-12-15T14:33:08.180Z,29.00
2018-12-15T14:35:40.160Z,28.80
2018-12-15T14:38:10.318Z,28.60
2018-12-15T14:40:41.738Z,28.50
2018-12-15T14:43:13.263Z,28.50
2018-12-15T14:45:43.408Z,28.60
2018-12-15T14:48:14.889Z,29.10
2018-12-15T14:50:48.431Z,29.10
2018-12-15T14:53:19.915Z,29.50
2018-12-15T14:55:51.283Z,29.60
2018-12-15T14:58:25.144Z,29.30
2018-12-15T15:00:57.534Z,29.20
2018-12-15T15:03:27.652Z,29.20
2018-12-15T15:05:58.026Z,29.10
2018-12-15T15:11:25.971Z,28.60
2018-12-15T15:16:47.507Z,29.10
2018-12-15T15:19:15.716Z,28.60
2018-12-15T15:24:36.391Z,28.80
2018-12-15T15:27:04.699Z,28.90
2018-12-15T15:29:32.943Z,28.80
2018-12-15T15:34:54.383Z,28.90
2018-12-15T15:37:23.415Z,28.80
2018-12-15T15:39:51.820Z,28.70
2018-12-15T15:45:13.595Z,29.60
2018-12-15T15:47:41.931Z,29.40
2018-12-15T15:50:10.150Z,30.00
2018-12-15T15:55:30.991Z,29.70
2018-12-15T15:58:00.499Z,29.50
2018-12-15T16:00:30.962Z,29.60
2018-12-15T16:05:52.791Z,29.70
2018-12-15T16:08:21.238Z,29.60
2018-12-15T16:10:49.548Z,30.10
2018-12-15T16:16:26.420Z,31.00
2018-12-15T16:18:55.737Z,31.40
2018-12-15T16:21:33.587Z,31.30
2018-12-15T16:27:01.044Z,31.70
2018-12-15T16:29:31.295Z,31.30
2018-12-15T16:34:55.796Z,31.50
2018-12-15T16:37:29.703Z,31.70
2018-12-15T16:43:04.300Z,32.70
2018-12-15T16:45:32.746Z,32.40
2018-12-15T16:48:01.037Z,32.40
2018-12-15T16:50:35.379Z,32.50
2018-12-15T16:56:00.960Z,32.80
2018-12-15T16:58:52.217Z,32.90
2018-12-15T17:01:20.540Z,32.30
2018-12-15T17:06:55.724Z,32.20
2018-12-15T17:09:27.236Z,32.00
2018-12-15T17:58:34.483Z,34.00
2018-12-15T18:01:02.829Z,33.80
2018-12-15T18:06:29.561Z,34.10
2018-12-15T18:08:57.879Z,34.20
2018-12-15T18:11:26.319Z,34.30
2018-12-15T18:16:48.167Z,34.50
2018-12-15T18:19:16.632Z,34.30
2018-12-15T18:22:03.484Z,34.20
2018-12-15T18:27:24.339Z,34.90
2018-12-15T18:29:52.731Z,35.30
2018-12-15T18:32:27.450Z,35.20
2018-12-15T18:34:55.677Z,35.00
2018-12-15T18:37:24.018Z,35.10
2018-12-15T18:39:57.884Z,34.40
2018-12-15T18:45:26.341Z,34.30
2018-12-15T18:47:54.671Z,34.10
2018-12-15T18:50:23.136Z,34.40
2018-12-15T18:55:52.482Z,34.00
2018-12-15T18:58:21.007Z,34.20
2018-12-15T19:00:49.294Z,33.80
2018-12-15T19:06:10.613Z,33.50
2018-12-15T19:08:39.039Z,33.50
2018-12-15T19:11:07.540Z,33.80
2018-12-15T19:16:28.988Z,34.50
2018-12-15T19:18:59.322Z,34.40
2018-12-15T19:21:35.266Z,34.80
2018-12-15T19:26:59.960Z,33.80
2018-12-15T19:32:32.765Z,34.10
2018-12-15T19:35:02.984Z,34.70
2018-12-15T19:37:31.230Z,34.70
2018-12-15T19:39:59.607Z,34.80
2018-12-15T19:45:28.778Z,35.50
2018-12-15T19:47:57.037Z,36.00
2018-12-15T19:50:25.339Z,36.10
2018-12-15T19:55:54.180Z,36.70
2018-12-15T19:58:22.952Z,37.00
2018-12-15T20:00:51.701Z,36.60
2018-12-15T20:06:24.087Z,36.70
2018-12-15T20:08:53.559Z,36.40
2018-12-15T20:11:21.909Z,36.20
2018-12-15T20:16:53.280Z,36.30
2018-12-15T20:19:21.582Z,36.00
2018-12-15T20:21:49.938Z,36.20
2018-12-15T20:27:18.736Z,36.40
2018-12-15T20:29:47.037Z,36.30
2018-12-15T20:32:15.665Z,36.00
2018-12-15T20:37:44.782Z,36.10
2018-12-15T20:40:13.067Z,35.90
2018-12-15T20:45:42.166Z,36.00
2018-12-15T20:48:10.919Z,36.10
2018-12-15T20:50:39.153Z,36.20
2018-12-15T20:56:07.846Z,35.70
2018-12-15T20:58:36.279Z,35.80
2018-12-15T21:01:04.507Z,36.00
2018-12-15T21:06:33.634Z,35.80
2018-12-15T21:09:01.934Z,36.00
2018-12-15T21:11:31.513Z,35.90
2018-12-15T21:16:53.235Z,36.30
2018-12-15T21:19:21.840Z,36.40
2018-12-15T21:21:51.242Z,36.20
2018-12-15T21:27:19.536Z,36.00
2018-12-15T21:29:47.840Z,36.00
2018-12-15T21:32:16.235Z,36.40
2018-12-15T21:37:45.202Z,36.80
2018-12-15T21:40:13.697Z,36.70
2018-12-15T21:45:35.926Z,37.00
2018-12-15T21:48:04.303Z,36.90
2018-12-15T21:50:32.566Z,36.60
2018-12-15T21:56:04.857Z,36.40
2018-12-15T21:58:33.191Z,36.70
2018-12-15T22:01:01.443Z,36.30
2018-12-15T22:06:30.668Z,35.90
2018-12-15T22:08:59.014Z,35.60
2018-12-15T22:11:27.380Z,36.10
2018-12-15T22:16:56.308Z,35.80
2018-12-15T22:19:24.587Z,36.10
2018-12-15T22:21:53.527Z,36.10
2018-12-15T22:27:22.367Z,36.10
2018-12-15T22:29:51.640Z,36.20
2018-12-15T22:32:20.017Z,36.30
2018-12-15T22:37:48.369Z,36.50
2018-12-15T22:40:16.614Z,36.20
2018-12-15T22:42:45.132Z,36.40
2018-12-15T22:48:14.799Z,36.70
2018-12-15T22:50:43.777Z,36.50
2018-12-15T22:56:07.243Z,36.60
2018-12-15T22:58:35.566Z,36.70
2018-12-15T23:01:08.041Z,37.60
2018-12-15T23:06:38.142Z,37.80
2018-12-15T23:09:07.607Z,37.50
2018-12-15T23:11:36.322Z,37.50
2018-12-15T23:17:05.433Z,37.30
2018-12-15T23:19:33.685Z,37.90
2018-12-15T23:22:01.973Z,37.30
2018-12-15T23:24:33.568Z,36.80
2018-12-15T23:27:01.832Z,36.70
2018-12-15T23:29:31.188Z,36.80
2018-12-15T23:31:59.552Z,36.90
2018-12-15T23:37:29.403Z,36.80
2018-12-15T23:39:58.917Z,37.20
2018-12-15T23:42:27.115Z,36.90
2018-12-15T23:47:56.329Z,36.10
2018-12-15T23:50:24.613Z,35.70
2018-12-15T23:52:53.133Z,36.10
2018-12-15T23:58:15.500Z,35.90
